Blythe, CA

11:06 AM PST on November 23, 2014 (GMT -0800)
Blythe | Change Station
CLOSE
Current Station
Airport
Location: Blythe,
Elevation: 397 ft
Nearby Weather Stations

Elev 397 ft 33.62 °N, 114.72 °W | Updated 14 minutes ago

Clear
Clear
72 °F
Feels Like 72 °F
N
22
Wind Variable Wind from North
Gusts 31 mph

Today
High -- | Low -- °F
--% Chance of Precip.
Yesterday
High -- | Low -- °F
Precip. -- in
6:17 AM 4:31 PM
New Moon, 2% visible
Pressure 30.16 in
Visibility 6.0 miles
Clouds Few 2000 ft
Dew Point 15 °F
Humidity 11%
Rainfall 0.00 in
Snow Depth Not available.
UV 4 out of 12
Pollen 4.50 out of 12
Air Quality Not available.
Flu Activity Not available.
METAR KBLH 231852Z AUTO 35019G27KT 6SM HZ FEW020 22/M09 A3017 RMK AO2 PK WND 36031/1814 SLP212 T02221094

More Conditions Fewer Conditions

Pressure 30.16 in
Visibility 6.0 miles
Clouds Few 2000 ft
Dew Point 15 °F
Humidity 11%
Rainfall 0.00 in
Snow Depth Not available.
UV 4 out of 12
Pollen 4.50 out of 12
Air Quality Not available.
Flu Activity Not available.
METAR KBLH 231852Z AUTO 35019G27KT 6SM HZ FEW020 22/M09 A3017 RMK AO2 PK WND 36031/1814 SLP212 T02221094

More Conditions Fewer Conditions

10-Day Weather Forecast

Almanac

Astronomy

Nov. 23, 2014 Rise Set
Actual Time
Civil Twilight
Nautical Twilight
Astronomical Twilight
Moon
Length of Visible Light
Length of Day
Tomorrow will be .
, % of the Moon is Illuminated

Today's Extremes

State Highs State Lows

Community

WunderPhotos

Upload Photos

1,773,135 photos uploaded!

WunderBlogs® & News

Nearby

Air Quality

  Air Quality AQ Index Pollutant
Not available.

Snow Depth

Station Depth Elevation

Earthquake Activity

City Distance Mag. Time & Date
Minimum magnitude displayed is 2.5.

Coastal Water Temperatures

Place Temperature

Nearby Weather Stations